createdAt,value
2022-09-12T00:00:49.853Z,70.67
2022-09-12T00:03:18.155Z,70.52
2022-09-12T00:05:47.752Z,70.95
2022-09-12T00:08:15.855Z,70.98
2022-09-12T00:10:45.643Z,70.68
2022-09-12T00:13:14.565Z,69.75
2022-09-12T00:15:43.899Z,69.79
2022-09-12T00:18:16.727Z,70.20
2022-09-12T00:20:45.437Z,70.17
2022-09-12T00:23:13.729Z,70.11
2022-09-12T00:25:44.807Z,70.06
2022-09-12T00:28:15.362Z,70.32
2022-09-12T00:30:43.207Z,70.76
2022-09-12T00:33:11.581Z,71.32
2022-09-12T00:35:43.309Z,71.30
2022-09-12T00:38:11.010Z,71.49
2022-09-12T00:40:38.781Z,71.97
2022-09-12T00:43:06.581Z,71.27
2022-09-12T00:45:35.864Z,71.42
2022-09-12T00:48:05.190Z,71.88
2022-09-12T00:50:34.139Z,71.88
2022-09-12T00:53:05.578Z,72.01
2022-09-12T00:55:37.119Z,72.08
2022-09-12T00:58:10.018Z,72.00
2022-09-12T01:00:41.576Z,71.92
2022-09-12T01:03:14.523Z,71.76
2022-09-12T01:05:46.403Z,72.57
2022-09-12T01:08:14.394Z,72.85
2022-09-12T01:10:43.480Z,72.68
2022-09-12T01:13:12.067Z,72.87
2022-09-12T01:15:41.680Z,72.67
2022-09-12T01:18:19.007Z,71.84
2022-09-12T01:20:54.725Z,72.28
2022-09-12T01:24:01.885Z,72.15
2022-09-12T01:26:55.416Z,71.18
2022-09-12T01:29:40.972Z,70.88
2022-09-12T01:32:14.449Z,69.93
2022-09-12T01:34:47.767Z,69.28
2022-09-12T01:37:23.436Z,68.97
2022-09-12T01:39:59.451Z,69.23
2022-09-12T01:42:35.137Z,69.18
2022-09-12T01:45:10.585Z,70.02
2022-09-12T01:47:44.742Z,70.59
2022-09-12T01:50:18.688Z,70.44
2022-09-12T01:52:52.045Z,70.33
2022-09-12T01:55:23.749Z,70.84
2022-09-12T01:57:55.981Z,69.71
2022-09-12T02:00:23.954Z,70.01
2022-09-12T02:02:58.338Z,70.43
2022-09-12T02:05:32.077Z,70.43
2022-09-12T02:08:06.851Z,70.99
2022-09-12T02:10:39.539Z,71.06
2022-09-12T02:13:14.569Z,71.41
2022-09-12T02:15:47.980Z,71.28
2022-09-12T02:18:19.255Z,71.21
2022-09-12T02:20:49.536Z,71.32
2022-09-12T02:23:24.687Z,70.88
2022-09-12T02:25:55.657Z,70.58
2022-09-12T02:28:27.733Z,70.84
2022-09-12T02:31:02.304Z,70.83
2022-09-12T02:33:39.207Z,71.30
2022-09-12T02:36:17.860Z,71.23
2022-09-12T02:38:47.935Z,70.81
2022-09-12T02:41:19.025Z,70.82
2022-09-12T02:43:47.402Z,70.65
2022-09-12T02:46:19.017Z,69.77
2022-09-12T02:48:47.988Z,70.25
2022-09-12T02:51:18.287Z,69.72
2022-09-12T02:53:49.250Z,70.09
2022-09-12T02:56:21.446Z,69.99
2022-09-12T02:58:49.747Z,69.57
2022-09-12T03:01:31.038Z,69.01
2022-09-12T03:04:26.147Z,69.74
2022-09-12T03:07:05.110Z,70.37
2022-09-12T03:09:40.696Z,69.99
2022-09-12T03:12:22.045Z,70.37
2022-09-12T03:15:10.851Z,69.31
2022-09-12T03:17:52.613Z,69.60
2022-09-12T03:20:32.070Z,69.46
2022-09-12T03:23:04.804Z,69.70
2022-09-12T03:25:37.315Z,70.45
2022-09-12T03:28:09.153Z,70.94
2022-09-12T03:30:39.950Z,70.48
2022-09-12T03:33:07.811Z,71.08
2022-09-12T03:35:36.748Z,70.87
2022-09-12T03:38:05.052Z,71.30
2022-09-12T03:40:32.585Z,71.75
2022-09-12T03:43:00.143Z,72.14
2022-09-12T03:45:27.866Z,71.35
2022-09-12T03:47:55.495Z,70.75
2022-09-12T03:50:23.174Z,69.29
2022-09-12T03:52:52.092Z,70.03
2022-09-12T03:55:19.690Z,70.32
2022-09-12T03:57:47.324Z,69.18
2022-09-12T04:00:19.560Z,69.95
2022-09-12T04:02:47.554Z,69.76
2022-09-12T04:05:15.320Z,70.19
2022-09-12T04:07:42.981Z,69.94
2022-09-12T04:10:11.979Z,70.43
2022-09-12T04:12:39.664Z,70.69
2022-09-12T04:15:08.454Z,70.78
2022-09-12T04:17:36.204Z,71.49
2022-09-12T04:20:04.129Z,71.77
2022-09-12T04:22:32.526Z,71.85
2022-09-12T04:25:00.110Z,72.04
2022-09-12T04:27:29.428Z,71.14
2022-09-12T04:29:57.380Z,71.80
2022-09-12T04:32:25.039Z,71.60
2022-09-12T04:34:53.339Z,71.14
2022-09-12T04:37:21.225Z,71.15
2022-09-12T04:39:49.742Z,71.21
2022-09-12T04:42:17.706Z,71.05
2022-09-12T04:44:46.656Z,70.65
2022-09-12T04:47:14.233Z,70.77
2022-09-12T04:49:41.801Z,70.69
2022-09-12T04:52:09.485Z,70.41
2022-09-12T04:54:37.879Z,69.71
2022-09-12T04:57:05.620Z,69.85
2022-09-12T04:59:33.241Z,69.69
2022-09-12T05:02:02.659Z,69.75
2022-09-12T05:04:31.570Z,69.92
2022-09-12T05:06:59.981Z,69.07
2022-09-12T05:09:27.762Z,69.04
2022-09-12T05:12:04.707Z,69.06
2022-09-12T05:14:33.568Z,68.63
2022-09-12T05:17:03.289Z,68.99
2022-09-12T05:19:31.957Z,68.77
2022-09-12T05:22:00.157Z,69.54
2022-09-12T05:24:28.119Z,69.66
2022-09-12T05:26:55.741Z,69.62
2022-09-12T05:29:25.103Z,69.44
2022-09-12T05:31:53.173Z,69.93
2022-09-12T05:34:22.327Z,69.83
2022-09-12T05:36:49.974Z,70.26
2022-09-12T05:39:18.526Z,70.35
2022-09-12T05:41:46.172Z,70.64
2022-09-12T05:44:15.119Z,70.14
2022-09-12T05:46:45.252Z,70.38
2022-09-12T05:49:14.745Z,70.26
2022-09-12T05:51:45.449Z,70.07
2022-09-12T05:54:15.170Z,70.01
2022-09-12T05:56:44.695Z,69.90
2022-09-12T05:59:14.091Z,69.63
2022-09-12T06:01:42.623Z,68.66
2022-09-12T06:04:10.537Z,68.70
2022-09-12T06:06:42.645Z,69.34
2022-09-12T06:09:11.985Z,68.28
2022-09-12T06:11:41.766Z,68.39
2022-09-12T06:14:16.846Z,68.01
2022-09-12T06:16:44.743Z,69.08
2022-09-12T06:19:16.298Z,69.08
2022-09-12T06:21:44.544Z,69.62
2022-09-12T06:24:14.061Z,69.59
2022-09-12T06:26:41.687Z,69.65
2022-09-12T06:29:11.495Z,70.25
2022-09-12T06:31:43.638Z,70.30
2022-09-12T06:34:13.298Z,70.22
2022-09-12T06:36:43.088Z,70.04
2022-09-12T06:39:14.621Z,69.83
2022-09-12T06:41:44.195Z,69.47
2022-09-12T06:44:14.331Z,69.09
2022-09-12T06:46:41.953Z,69.46
2022-09-12T06:49:09.964Z,69.63
2022-09-12T06:51:37.690Z,69.53
2022-09-12T06:54:06.322Z,69.80
2022-09-12T06:56:35.941Z,69.63
2022-09-12T06:59:03.557Z,69.56
2022-09-12T07:01:32.768Z,69.51
2022-09-12T07:04:02.133Z,69.52
2022-09-12T07:06:32.485Z,69.66
2022-09-12T07:09:00.901Z,69.45
2022-09-12T07:11:31.685Z,69.28
2022-09-12T07:14:02.110Z,69.14
2022-09-12T07:16:30.347Z,69.20
2022-09-12T07:19:01.362Z,69.08
2022-09-12T07:21:29.877Z,68.96
2022-09-12T07:23:58.137Z,68.90
2022-09-12T07:26:29.990Z,68.77
2022-09-12T07:29:18.606Z,68.77
2022-09-12T07:31:49.107Z,68.68
2022-09-12T07:34:17.603Z,68.74
2022-09-12T07:36:45.228Z,68.53
2022-09-12T07:39:16.230Z,68.72
2022-09-12T07:41:43.836Z,68.41
2022-09-12T07:44:11.461Z,68.68
2022-09-12T07:46:40.702Z,68.46
2022-09-12T07:49:10.727Z,65.96
2022-09-12T07:51:38.415Z,64.75
2022-09-12T07:54:09.192Z,65.38
2022-09-12T07:56:39.524Z,66.21
2022-09-12T07:59:09.581Z,66.46
2022-09-12T08:01:37.306Z,66.96
2022-09-12T08:04:06.050Z,67.38
2022-09-12T08:06:36.907Z,67.51
2022-09-12T08:09:06.036Z,67.56
2022-09-12T08:11:33.782Z,67.41
2022-09-12T08:14:03.002Z,67.43
2022-09-12T08:16:32.172Z,67.13
2022-09-12T08:19:01.968Z,67.56
2022-09-12T08:21:31.677Z,67.27
2022-09-12T08:24:02.024Z,67.44
2022-09-12T08:26:30.150Z,67.35
2022-09-12T08:28:58.212Z,67.04
2022-09-12T08:31:27.752Z,64.97
2022-09-12T08:33:56.991Z,64.82
2022-09-12T08:36:26.441Z,63.89
2022-09-12T08:38:59.621Z,64.21
2022-09-12T08:41:31.800Z,64.95
2022-09-12T08:44:34.931Z,62.42
2022-09-12T08:47:21.126Z,62.92
2022-09-12T08:50:03.931Z,64.13
2022-09-12T08:52:38.406Z,64.43
2022-09-12T08:55:12.901Z,64.40
2022-09-12T08:57:41.948Z,64.39
2022-09-12T09:00:15.103Z,63.36
2022-09-12T09:02:59.026Z,64.09
2022-09-12T09:05:38.731Z,63.42
2022-09-12T09:08:41.840Z,60.87
2022-09-12T09:11:24.345Z,61.36
2022-09-12T09:14:22.708Z,62.38
2022-09-12T09:16:53.496Z,63.61
2022-09-12T09:19:26.327Z,63.99
2022-09-12T09:22:00.126Z,64.12
2022-09-12T09:24:34.368Z,61.82
2022-09-12T09:27:23.474Z,62.17
2022-09-12T09:29:57.002Z,61.27
2022-09-12T09:32:28.886Z,61.24
2022-09-12T09:34:56.691Z,61.71
2022-09-12T09:37:33.320Z,62.58
2022-09-12T09:40:08.274Z,62.60
2022-09-12T09:42:43.695Z,61.17
2022-09-12T09:45:17.955Z,62.02
2022-09-12T09:47:46.914Z,62.13
2022-09-12T09:50:17.563Z,62.71
2022-09-12T09:52:45.384Z,63.11
2022-09-12T09:55:18.795Z,61.85
2022-09-12T09:57:47.681Z,60.21
2022-09-12T10:00:26.999Z,57.91
2022-09-12T10:03:12.602Z,55.62
2022-09-12T10:05:48.005Z,55.98
2022-09-12T10:08:22.272Z,57.00
2022-09-12T10:11:02.835Z,58.58
2022-09-12T10:13:37.586Z,59.85
2022-09-12T10:16:08.628Z,60.16
2022-09-12T10:18:39.973Z,60.96
2022-09-12T10:21:20.382Z,61.01
2022-09-12T10:23:52.456Z,60.71
2022-09-12T10:26:21.639Z,60.40
2022-09-12T10:28:53.462Z,59.85
2022-09-12T10:31:29.003Z,58.72
2022-09-12T10:33:59.610Z,57.13
2022-09-12T10:36:36.711Z,58.58
2022-09-12T10:39:05.531Z,58.20
2022-09-12T10:41:38.916Z,58.80
2022-09-12T10:44:09.799Z,58.29
2022-09-12T10:46:39.194Z,57.97
2022-09-12T10:49:24.177Z,56.16
2022-09-12T10:51:53.952Z,56.28
2022-09-12T10:54:24.629Z,57.66
2022-09-12T10:57:07.608Z,58.76
2022-09-12T10:59:52.658Z,59.49
2022-09-12T11:02:29.340Z,60.06
2022-09-12T11:05:08.980Z,60.24
2022-09-12T11:07:42.937Z,58.61
2022-09-12T11:10:44.460Z,59.13
2022-09-12T11:13:24.277Z,59.54
2022-09-12T11:16:10.555Z,59.63
2022-09-12T11:19:06.384Z,59.93
2022-09-12T11:21:48.850Z,59.56
2022-09-12T11:24:35.145Z,57.37
2022-09-12T11:27:15.009Z,57.35
2022-09-12T11:29:49.959Z,58.16
2022-09-12T11:32:59.956Z,57.71
2022-09-12T11:35:30.335Z,58.54
2022-09-12T11:38:12.695Z,58.78
2022-09-12T11:40:45.705Z,58.68
2022-09-12T11:43:24.862Z,58.14
2022-09-12T11:45:53.541Z,58.30
2022-09-12T11:48:36.017Z,58.57
2022-09-12T11:51:09.009Z,58.01
2022-09-12T11:53:42.570Z,57.56
2022-09-12T11:56:16.947Z,58.14
2022-09-12T11:58:47.299Z,58.56
2022-09-12T12:01:19.063Z,58.45
2022-09-12T12:03:48.894Z,58.92
2022-09-12T12:06:20.211Z,58.84
2022-09-12T12:08:50.447Z,57.93
2022-09-12T12:11:30.098Z,57.43
2022-09-12T12:14:01.359Z,58.13
2022-09-12T12:16:30.846Z,58.61
2022-09-12T12:19:00.195Z,58.62
2022-09-12T12:21:37.694Z,58.59
2022-09-12T12:24:23.006Z,58.52
2022-09-12T12:27:00.136Z,57.30
2022-09-12T12:29:44.121Z,58.24
2022-09-12T12:32:33.047Z,56.21
2022-09-12T12:35:37.692Z,55.53
2022-09-12T12:38:27.180Z,55.27
2022-09-12T12:40:54.878Z,55.18
2022-09-12T12:43:32.956Z,55.67
2022-09-12T12:46:12.427Z,52.94
2022-09-12T12:48:51.723Z,52.36
2022-09-12T12:51:38.823Z,52.63
2022-09-12T12:54:29.387Z,51.63
2022-09-12T12:57:18.491Z,49.72
2022-09-12T12:59:49.973Z,50.66
2022-09-12T13:02:26.753Z,50.50
2022-09-12T13:04:55.582Z,51.19
2022-09-12T13:07:28.878Z,50.09
2022-09-12T13:09:59.417Z,51.39
2022-09-12T13:12:30.614Z,51.33
2022-09-12T13:14:59.441Z,52.05
2022-09-12T13:17:31.508Z,51.78
2022-09-12T13:20:28.754Z,52.57
2022-09-12T13:22:57.413Z,51.50
2022-09-12T13:25:30.176Z,52.88
2022-09-12T13:28:07.187Z,53.28
2022-09-12T13:30:37.342Z,52.76
2022-09-12T13:33:14.310Z,52.98
2022-09-12T13:35:54.082Z,52.45
2022-09-12T13:38:32.182Z,52.41
2022-09-12T13:41:19.871Z,52.60
2022-09-12T13:43:49.475Z,51.55
2022-09-12T13:46:23.682Z,51.14
2022-09-12T13:48:51.330Z,50.82
2022-09-12T13:51:25.169Z,50.94
2022-09-12T13:53:56.226Z,50.33
2022-09-12T13:56:25.268Z,51.26
2022-09-12T13:58:56.341Z,50.56
2022-09-12T14:01:25.516Z,49.55
2022-09-12T14:04:11.990Z,50.38
2022-09-12T14:06:49.999Z,47.86
2022-09-12T14:09:25.442Z,48.58
2022-09-12T14:11:55.806Z,48.30
2022-09-12T14:14:29.439Z,48.17
2022-09-12T14:16:57.049Z,46.16
2022-09-12T14:19:27.318Z,46.01
2022-09-12T14:21:55.963Z,45.02
2022-09-12T14:24:24.364Z,45.79
2022-09-12T14:26:57.672Z,43.43
2022-09-12T14:29:26.203Z,44.00
2022-09-12T14:32:05.731Z,44.66
2022-09-12T14:34:33.318Z,44.29
2022-09-12T14:37:01.083Z,44.82
2022-09-12T14:39:33.952Z,45.53
2022-09-12T14:42:07.199Z,44.44
2022-09-12T14:44:37.243Z,42.64
2022-09-12T14:47:16.089Z,43.38
2022-09-12T14:49:44.665Z,45.16
2022-09-12T14:52:26.541Z,45.55
2022-09-12T14:54:58.837Z,45.00
2022-09-12T14:57:38.801Z,46.40
2022-09-12T15:00:17.801Z,46.45
2022-09-12T15:02:45.660Z,46.58
2022-09-12T15:05:20.185Z,46.75
2022-09-12T15:07:54.821Z,47.01
2022-09-12T15:10:25.370Z,46.93
2022-09-12T15:13:14.158Z,47.49
2022-09-12T15:15:43.361Z,47.18
2022-09-12T15:18:11.343Z,47.87
2022-09-12T15:20:40.797Z,47.47
2022-09-12T15:23:19.309Z,47.53
2022-09-12T15:25:47.164Z,47.37
2022-09-12T15:28:20.592Z,47.43
2022-09-12T15:30:51.230Z,46.50
2022-09-12T15:33:20.920Z,47.24
2022-09-12T15:35:48.579Z,47.57
2022-09-12T15:38:16.521Z,48.19
2022-09-12T15:40:44.187Z,48.05
2022-09-12T15:43:13.884Z,47.93
2022-09-12T15:45:45.205Z,47.09
2022-09-12T15:48:13.789Z,47.61
2022-09-12T15:50:42.037Z,47.25
2022-09-12T15:53:14.105Z,47.12
2022-09-12T15:55:41.820Z,47.52
2022-09-12T15:58:09.723Z,47.82
2022-09-12T16:00:37.508Z,47.80
2022-09-12T16:03:06.690Z,47.93
2022-09-12T16:05:34.451Z,47.50
2022-09-12T16:08:03.542Z,47.39
2022-09-12T16:10:31.604Z,47.42
2022-09-12T16:12:59.717Z,47.64
2022-09-12T16:15:27.481Z,48.30
2022-09-12T16:17:55.098Z,48.19
2022-09-12T16:20:24.334Z,48.65
2022-09-12T16:22:51.982Z,49.30
2022-09-12T16:25:19.868Z,48.50
2022-09-12T16:27:47.493Z,47.88
2022-09-12T16:30:15.326Z,48.98
2022-09-12T16:32:43.046Z,49.55
2022-09-12T16:35:14.062Z,49.42
2022-09-12T16:37:43.374Z,49.98
2022-09-12T16:40:11.918Z,50.19
2022-09-12T16:42:43.529Z,49.87
2022-09-12T16:45:12.083Z,50.43
2022-09-12T16:47:40.006Z,50.89
2022-09-12T16:50:11.381Z,51.54
2022-09-12T16:52:39.298Z,51.33
2022-09-12T16:55:09.972Z,52.03
2022-09-12T16:57:37.568Z,52.22
2022-09-12T17:00:06.733Z,52.46
2022-09-12T17:02:34.377Z,52.35
2022-09-12T17:05:01.993Z,52.75
2022-09-12T17:07:29.626Z,52.97
2022-09-12T17:09:57.232Z,52.97
2022-09-12T17:12:26.310Z,53.19
2022-09-12T17:14:54.380Z,53.35
2022-09-12T17:17:21.949Z,53.85
2022-09-12T17:19:49.811Z,54.10
2022-09-12T17:22:17.424Z,54.49
2022-09-12T17:24:45.392Z,54.40
2022-09-12T17:27:13.103Z,54.58
2022-09-12T17:29:42.031Z,54.97
2022-09-12T17:32:09.589Z,55.22
2022-09-12T17:34:37.281Z,54.71
2022-09-12T17:37:05.282Z,55.25
2022-09-12T17:39:32.977Z,55.40
2022-09-12T17:42:00.626Z,55.37
2022-09-12T17:44:30.117Z,55.28
2022-09-12T17:46:59.033Z,55.36
2022-09-12T17:49:26.838Z,54.90
2022-09-12T17:51:56.126Z,55.33
2022-09-12T17:54:24.508Z,55.88
2022-09-12T17:56:52.433Z,56.29
2022-09-12T17:59:22.907Z,56.45
2022-09-12T18:02:08.524Z,56.56
2022-09-12T18:04:37.547Z,56.90
2022-09-12T18:07:05.926Z,56.96
2022-09-12T18:09:33.683Z,57.45
2022-09-12T18:12:01.287Z,57.33
2022-09-12T18:14:29.066Z,57.70
2022-09-12T18:16:57.613Z,57.86
2022-09-12T18:19:26.556Z,57.84
2022-09-12T18:21:56.001Z,58.07
2022-09-12T18:24:24.111Z,58.00
2022-09-12T18:26:51.903Z,57.83
2022-09-12T18:29:20.124Z,57.95
2022-09-12T18:31:48.012Z,58.06
2022-09-12T18:34:16.143Z,58.42
2022-09-12T18:36:45.535Z,58.39
2022-09-12T18:39:15.303Z,58.58
2022-09-12T18:41:42.939Z,58.77
2022-09-12T18:44:12.461Z,58.67
2022-09-12T18:46:40.237Z,58.58
2022-09-12T18:49:19.377Z,58.29
2022-09-12T18:52:13.631Z,57.71
2022-09-12T18:54:42.767Z,58.12
2022-09-12T18:57:12.168Z,58.65
2022-09-12T19:00:09.345Z,58.79
2022-09-12T19:02:48.640Z,58.74
2022-09-12T19:05:21.446Z,59.41
2022-09-12T19:07:49.554Z,59.33
2022-09-12T19:10:19.646Z,59.59
2022-09-12T19:12:49.247Z,59.94
2022-09-12T19:15:16.958Z,59.85
2022-09-12T19:17:48.298Z,60.33
2022-09-12T19:20:15.915Z,60.11
2022-09-12T19:22:43.840Z,60.40
2022-09-12T19:25:11.467Z,60.54
2022-09-12T19:27:40.405Z,60.61
2022-09-12T19:30:08.791Z,60.94
2022-09-12T19:32:36.793Z,60.25
2022-09-12T19:35:05.001Z,60.26
2022-09-12T19:37:32.564Z,60.57
2022-09-12T19:40:00.282Z,60.73
2022-09-12T19:42:27.888Z,60.69
2022-09-12T19:44:56.816Z,60.89
2022-09-12T19:47:25.179Z,60.88
2022-09-12T19:49:52.810Z,60.82
2022-09-12T19:52:20.565Z,61.05
2022-09-12T19:54:48.347Z,61.01
2022-09-12T19:57:15.880Z,60.95
2022-09-12T19:59:45.090Z,61.08
2022-09-12T20:02:14.126Z,61.15
2022-09-12T20:04:42.083Z,61.12
2022-09-12T20:07:09.688Z,61.24
2022-09-12T20:09:37.756Z,61.52
2022-09-12T20:12:06.000Z,61.61
2022-09-12T20:14:33.572Z,61.43
2022-09-12T20:17:01.197Z,61.62
2022-09-12T20:19:31.364Z,61.89
2022-09-12T20:21:59.667Z,61.85
2022-09-12T20:24:27.378Z,61.88
2022-09-12T20:26:57.502Z,61.66
2022-09-12T20:29:28.154Z,61.62
2022-09-12T20:31:55.732Z,61.29
2022-09-12T20:34:23.714Z,61.40
2022-09-12T20:36:52.993Z,61.56
2022-09-12T20:39:22.625Z,61.72
2022-09-12T20:41:50.638Z,61.49
2022-09-12T20:44:18.395Z,61.34
2022-09-12T20:46:46.107Z,61.59
2022-09-12T20:49:13.760Z,62.15
2022-09-12T20:51:41.351Z,62.06
2022-09-12T20:54:11.730Z,62.01
2022-09-12T20:56:39.644Z,62.28
2022-09-12T20:59:07.443Z,60.79
2022-09-12T21:01:35.302Z,59.43
2022-09-12T21:04:03.295Z,59.64
2022-09-12T21:06:31.621Z,60.35
2022-09-12T21:08:59.764Z,60.46
2022-09-12T21:11:29.427Z,61.15
2022-09-12T21:13:57.902Z,61.38
2022-09-12T21:16:25.554Z,61.77
2022-09-12T21:18:57.887Z,62.41
2022-09-12T21:21:26.444Z,62.22
2022-09-12T21:23:55.271Z,62.28
2022-09-12T21:26:22.871Z,62.57
2022-09-12T21:28:51.797Z,62.03
2022-09-12T21:31:19.395Z,62.06
2022-09-12T21:33:47.051Z,61.74
2022-09-12T21:36:14.678Z,62.18
2022-09-12T21:38:42.226Z,61.84
2022-09-12T21:41:11.803Z,62.37
2022-09-12T21:43:40.169Z,61.12
2022-09-12T21:46:09.825Z,60.50
2022-09-12T21:48:38.168Z,60.61
2022-09-12T21:51:06.573Z,60.47
2022-09-12T21:53:34.209Z,60.60
2022-09-12T21:56:04.676Z,60.48
2022-09-12T21:58:32.365Z,60.48
2022-09-12T22:01:00.881Z,59.67
2022-09-12T22:03:31.182Z,59.90
2022-09-12T22:06:00.158Z,59.14
2022-09-12T22:08:28.097Z,59.18
2022-09-12T22:10:59.413Z,59.46
2022-09-12T22:13:27.378Z,59.48
2022-09-12T22:15:55.267Z,59.26
2022-09-12T22:18:22.874Z,59.71
2022-09-12T22:20:59.716Z,59.51
2022-09-12T22:23:45.120Z,59.64
2022-09-12T22:26:14.068Z,60.02
2022-09-12T22:28:41.607Z,60.24
2022-09-12T22:31:11.379Z,60.39
2022-09-12T22:33:39.104Z,61.32
2022-09-12T22:36:08.809Z,60.78
2022-09-12T22:38:37.135Z,60.46
2022-09-12T22:41:05.890Z,61.06
2022-09-12T22:43:34.035Z,61.22
2022-09-12T22:46:01.841Z,61.90
2022-09-12T22:48:29.515Z,62.40
2022-09-12T22:50:57.123Z,62.51
2022-09-12T22:53:26.208Z,62.18
2022-09-12T22:55:53.869Z,61.76
2022-09-12T22:58:21.693Z,62.05
2022-09-12T23:00:50.439Z,61.54
2022-09-12T23:03:18.375Z,61.17
2022-09-12T23:05:47.115Z,60.98
2022-09-12T23:08:14.789Z,59.81
2022-09-12T23:10:43.982Z,60.07
2022-09-12T23:13:12.306Z,61.15
2022-09-12T23:15:40.122Z,61.15
2022-09-12T23:18:08.415Z,61.58
2022-09-12T23:20:36.037Z,60.68
2022-09-12T23:23:03.947Z,61.12
2022-09-12T23:25:31.535Z,61.25
2022-09-12T23:28:00.467Z,60.00
2022-09-12T23:30:28.083Z,60.76
2022-09-12T23:32:56.782Z,60.89
2022-09-12T23:35:24.423Z,61.17
2022-09-12T23:37:51.998Z,61.05
2022-09-12T23:40:19.665Z,61.61
2022-09-12T23:42:47.282Z,61.63
2022-09-12T23:45:16.409Z,61.86
2022-09-12T23:47:43.956Z,62.01
2022-09-12T23:50:11.531Z,62.54
2022-09-12T23:52:39.121Z,62.55
2022-09-12T23:55:07.326Z,61.58
2022-09-12T23:57:35.114Z,61.49
